sensor_id;sensor_type;location;lat;lon;timestamp;pressure;altitude;pressure_sealevel;temperature;humidity
14612;BME280;7392;52.078;11.650;2022-09-14T00:00:57;100113.28;;;13.47;100.00
14612;BME280;7392;52.078;11.650;2022-09-14T00:03:45;100113.38;;;13.44;100.00
14612;BME280;7392;52.078;11.650;2022-09-14T00:06:14;100120.50;;;13.42;100.00
14612;BME280;7392;52.078;11.650;2022-09-14T00:08:42;100111.66;;;13.42;100.00
14612;BME280;7392;52.078;11.650;2022-09-14T00:11:13;100109.91;;;13.41;100.00
14612;BME280;7392;52.078;11.650;2022-09-14T00:13:43;100102.84;;;13.38;100.00
14612;BME280;7392;52.078;11.650;2022-09-14T00:16:13;100109.16;;;13.36;100.00
14612;BME280;7392;52.078;11.650;2022-09-14T00:18:42;100098.50;;;13.34;100.00
14612;BME280;7392;52.078;11.650;2022-09-14T00:21:11;100103.03;;;13.29;100.00
14612;BME280;7392;52.078;11.650;2022-09-14T00:23:40;100105.81;;;13.24;100.00
14612;BME280;7392;52.078;11.650;2022-09-14T00:26:12;100097.88;;;13.21;100.00
14612;BME280;7392;52.078;11.650;2022-09-14T00:28:44;100099.78;;;13.16;100.00
14612;BME280;7392;52.078;11.650;2022-09-14T00:31:13;100097.13;;;13.15;100.00
14612;BME280;7392;52.078;11.650;2022-09-14T00:33:42;100090.09;;;13.12;100.00
14612;BME280;7392;52.078;11.650;2022-09-14T00:36:12;100082.09;;;13.12;100.00
14612;BME280;7392;52.078;11.650;2022-09-14T00:38:40;100089.22;;;13.10;100.00
14612;BME280;7392;52.078;11.650;2022-09-14T00:41:13;100079.50;;;13.09;100.00
14612;BME280;7392;52.078;11.650;2022-09-14T00:43:55;100080.41;;;13.08;100.00
14612;BME280;7392;52.078;11.650;2022-09-14T00:46:24;100073.34;;;13.07;100.00
14612;BME280;7392;52.078;11.650;2022-09-14T00:48:53;100068.94;;;13.04;100.00
14612;BME280;7392;52.078;11.650;2022-09-14T00:51:23;100063.63;;;13.03;100.00
14612;BME280;7392;52.078;11.650;2022-09-14T00:53:51;100076.97;;;13.03;100.00
14612;BME280;7392;52.078;11.650;2022-09-14T00:56:20;100074.38;;;13.00;100.00
14612;BME280;7392;52.078;11.650;2022-09-14T00:58:49;100073.53;;;12.98;100.00
14612;BME280;7392;52.078;11.650;2022-09-14T01:01:17;100069.19;;;12.94;100.00
14612;BME280;7392;52.078;11.650;2022-09-14T01:03:46;100067.53;;;12.88;100.00
14612;BME280;7392;52.078;11.650;2022-09-14T01:06:18;100071.16;;;12.84;100.00
14612;BME280;7392;52.078;11.650;2022-09-14T01:09:00;100061.50;;;12.80;100.00
14612;BME280;7392;52.078;11.650;2022-09-14T01:11:42;100068.66;;;12.78;100.00
14612;BME280;7392;52.078;11.650;2022-09-14T01:14:23;100058.97;;;12.73;100.00
14612;BME280;7392;52.078;11.650;2022-09-14T01:17:01;100064.31;;;12.72;100.00
14612;BME280;7392;52.078;11.650;2022-09-14T01:19:47;100063.47;;;12.70;100.00
14612;BME280;7392;52.078;11.650;2022-09-14T01:22:24;100063.50;;;12.68;100.00
14612;BME280;7392;52.078;11.650;2022-09-14T01:24:55;100060.91;;;12.65;100.00
14612;BME280;7392;52.078;11.650;2022-09-14T01:27:30;100064.50;;;12.64;100.00
14612;BME280;7392;52.078;11.650;2022-09-14T01:30:05;100064.56;;;12.61;100.00
14612;BME280;7392;52.078;11.650;2022-09-14T01:32:38;100061.19;;;12.53;100.00
14612;BME280;7392;52.078;11.650;2022-09-14T01:35:14;100048.88;;;12.47;100.00
14612;BME280;7392;52.078;11.650;2022-09-14T01:37:46;100061.41;;;12.42;100.00
14612;BME280;7392;52.078;11.650;2022-09-14T01:40:19;100062.38;;;12.37;100.00
14612;BME280;7392;52.078;11.650;2022-09-14T01:42:57;100062.50;;;12.32;100.00
14612;BME280;7392;52.078;11.650;2022-09-14T01:45:26;100067.88;;;12.29;100.00
14612;BME280;7392;52.078;11.650;2022-09-14T01:47:59;100067.91;;;12.27;100.00
14612;BME280;7392;52.078;11.650;2022-09-14T01:50:33;100068.91;;;12.23;100.00
14612;BME280;7392;52.078;11.650;2022-09-14T01:53:08;100071.63;;;12.20;100.00
14612;BME280;7392;52.078;11.650;2022-09-14T01:55:42;100070.75;;;12.20;100.00
14612;BME280;7392;52.078;11.650;2022-09-14T01:58:17;100065.47;;;12.16;100.00
14612;BME280;7392;52.078;11.650;2022-09-14T02:00:47;100065.53;;;12.13;100.00
14612;BME280;7392;52.078;11.650;2022-09-14T02:03:19;100065.56;;;12.12;100.00
14612;BME280;7392;52.078;11.650;2022-09-14T02:05:53;100064.66;;;12.13;100.00
14612;BME280;7392;52.078;11.650;2022-09-14T02:08:27;100061.09;;;12.12;100.00
14612;BME280;7392;52.078;11.650;2022-09-14T02:10:56;100049.59;;;12.12;100.00
14612;BME280;7392;52.078;11.650;2022-09-14T02:13:25;100050.44;;;12.12;100.00
14612;BME280;7392;52.078;11.650;2022-09-14T02:15:54;100055.78;;;12.12;100.00
14612;BME280;7392;52.078;11.650;2022-09-14T02:18:22;100054.91;;;12.12;100.00
14612;BME280;7392;52.078;11.650;2022-09-14T02:20:53;100055.78;;;12.12;100.00
14612;BME280;7392;52.078;11.650;2022-09-14T02:23:22;100047.78;;;12.12;100.00
14612;BME280;7392;52.078;11.650;2022-09-14T02:25:50;100046.91;;;12.12;100.00
14612;BME280;7392;52.078;11.650;2022-09-14T02:28:19;100040.72;;;12.11;100.00
14612;BME280;7392;52.078;11.650;2022-09-14T02:30:54;100038.09;;;12.10;100.00
14612;BME280;7392;52.078;11.650;2022-09-14T02:33:33;100031.94;;;12.08;100.00
14612;BME280;7392;52.078;11.650;2022-09-14T02:36:06;100023.97;;;12.06;100.00
14612;BME280;7392;52.078;11.650;2022-09-14T02:38:42;100018.69;;;12.05;100.00
14612;BME280;7392;52.078;11.650;2022-09-14T02:41:17;100024.91;;;12.04;100.00
14612;BME280;7392;52.078;11.650;2022-09-14T02:43:52;100017.88;;;12.01;100.00
14612;BME280;7392;52.078;11.650;2022-09-14T02:46:34;100017.91;;;12.00;100.00
14612;BME280;7392;52.078;11.650;2022-09-14T02:49:10;100026.78;;;11.98;100.00
14612;BME280;7392;52.078;11.650;2022-09-14T02:51:44;100015.28;;;11.96;100.00
14612;BME280;7392;52.078;11.650;2022-09-14T02:54:18;100018.94;;;11.92;100.00
14612;BME280;7392;52.078;11.650;2022-09-14T02:56:48;100010.97;;;11.89;100.00
14612;BME280;7392;52.078;11.650;2022-09-14T02:59:15;100019.00;;;11.86;100.00
14612;BME280;7392;52.078;11.650;2022-09-14T03:01:45;100028.84;;;11.81;100.00
14612;BME280;7392;52.078;11.650;2022-09-14T03:04:13;100029.81;;;11.77;100.00
14612;BME280;7392;52.078;11.650;2022-09-14T03:06:40;100024.56;;;11.74;100.00
14612;BME280;7392;52.078;11.650;2022-09-14T03:09:08;100027.25;;;11.71;100.00
14612;BME280;7392;52.078;11.650;2022-09-14T03:11:36;100024.66;;;11.68;100.00
14612;BME280;7392;52.078;11.650;2022-09-14T03:14:03;100022.00;;;11.68;100.00
14612;BME280;7392;52.078;11.650;2022-09-14T03:16:31;100025.59;;;11.65;100.00
14612;BME280;7392;52.078;11.650;2022-09-14T03:19:00;100019.41;;;11.63;100.00
14612;BME280;7392;52.078;11.650;2022-09-14T03:21:28;100021.22;;;11.61;100.00
14612;BME280;7392;52.078;11.650;2022-09-14T03:23:56;100023.88;;;11.61;100.00
14612;BME280;7392;52.078;11.650;2022-09-14T03:26:25;100023.91;;;11.59;100.00
14612;BME280;7392;52.078;11.650;2022-09-14T03:28:56;100004.41;;;11.60;100.00
14612;BME280;7392;52.078;11.650;2022-09-14T03:31:24;99998.22;;;11.58;100.00
14612;BME280;7392;52.078;11.650;2022-09-14T03:33:53;99997.31;;;11.59;100.00
14612;BME280;7392;52.078;11.650;2022-09-14T03:36:24;100000.06;;;11.56;100.00
14612;BME280;7392;52.078;11.650;2022-09-14T03:38:55;99996.50;;;11.56;100.00
14612;BME280;7392;52.078;11.650;2022-09-14T03:41:23;100000.94;;;11.55;100.00
14612;BME280;7392;52.078;11.650;2022-09-14T03:43:51;99993.84;;;11.54;100.00
14612;BME280;7392;52.078;11.650;2022-09-14T03:46:20;99999.19;;;11.54;100.00
14612;BME280;7392;52.078;11.650;2022-09-14T03:48:49;99989.44;;;11.55;100.00
14612;BME280;7392;52.078;11.650;2022-09-14T03:51:17;99992.97;;;11.55;100.00
14612;BME280;7392;52.078;11.650;2022-09-14T03:53:46;99988.50;;;11.56;100.00
14612;BME280;7392;52.078;11.650;2022-09-14T03:56:16;99983.19;;;11.56;100.00
14612;BME280;7392;52.078;11.650;2022-09-14T03:58:46;99975.19;;;11.57;100.00
14612;BME280;7392;52.078;11.650;2022-09-14T04:01:16;99977.84;;;11.57;100.00
14612;BME280;7392;52.078;11.650;2022-09-14T04:03:44;99976.97;;;11.58;100.00
14612;BME280;7392;52.078;11.650;2022-09-14T04:06:13;99979.59;;;11.60;100.00
14612;BME280;7392;52.078;11.650;2022-09-14T04:08:42;99974.31;;;11.58;100.00
14612;BME280;7392;52.078;11.650;2022-09-14T04:11:13;99969.84;;;11.59;100.00
14612;BME280;7392;52.078;11.650;2022-09-14T04:13:42;99962.75;;;11.58;100.00
14612;BME280;7392;52.078;11.650;2022-09-14T04:16:11;99954.84;;;11.56;100.00
14612;BME280;7392;52.078;11.650;2022-09-14T04:18:39;99959.22;;;11.57;100.00
14612;BME280;7392;52.078;11.650;2022-09-14T04:21:10;99964.59;;;11.56;100.00
14612;BME280;7392;52.078;11.650;2022-09-14T04:23:39;99950.41;;;11.55;100.00
14612;BME280;7392;52.078;11.650;2022-09-14T04:26:29;99955.75;;;11.55;100.00
14612;BME280;7392;52.078;11.650;2022-09-14T04:28:57;99968.16;;;11.55;100.00
14612;BME280;7392;52.078;11.650;2022-09-14T04:31:25;99966.41;;;11.54;100.00
14612;BME280;7392;52.078;11.650;2022-09-14T04:33:54;99981.47;;;11.55;100.00
14612;BME280;7392;52.078;11.650;2022-09-14T04:36:24;99981.47;;;11.53;100.00
14612;BME280;7392;52.078;11.650;2022-09-14T04:38:55;99969.09;;;11.52;100.00
14612;BME280;7392;52.078;11.650;2022-09-14T04:41:24;99966.41;;;11.54;100.00
14612;BME280;7392;52.078;11.650;2022-09-14T04:43:54;99969.06;;;11.54;100.00
14612;BME280;7392;52.078;11.650;2022-09-14T04:46:23;99977.91;;;11.54;100.00
14612;BME280;7392;52.078;11.650;2022-09-14T04:48:52;99982.31;;;11.55;100.00
14612;BME280;7392;52.078;11.650;2022-09-14T04:51:21;99977.91;;;11.54;100.00
14612;BME280;7392;52.078;11.650;2022-09-14T04:53:51;99972.59;;;11.54;100.00
14612;BME280;7392;52.078;11.650;2022-09-14T04:56:21;99972.56;;;11.56;100.00
14612;BME280;7392;52.078;11.650;2022-09-14T04:58:55;99964.59;;;11.56;100.00
14612;BME280;7392;52.078;11.650;2022-09-14T05:01:25;99965.47;;;11.56;100.00
14612;BME280;7392;52.078;11.650;2022-09-14T05:03:54;99966.34;;;11.57;100.00
14612;BME280;7392;52.078;11.650;2022-09-14T05:06:23;99963.66;;;11.58;100.00
14612;BME280;7392;52.078;11.650;2022-09-14T05:08:53;99957.41;;;11.59;100.00
14612;BME280;7392;52.078;11.650;2022-09-14T05:11:24;99953.88;;;11.60;100.00
14612;BME280;7392;52.078;11.650;2022-09-14T05:13:55;99953.88;;;11.60;100.00
14612;BME280;7392;52.078;11.650;2022-09-14T05:16:24;99957.38;;;11.63;100.00
14612;BME280;7392;52.078;11.650;2022-09-14T05:18:54;99948.53;;;11.62;100.00
14612;BME280;7392;52.078;11.650;2022-09-14T05:21:22;99951.16;;;11.64;100.00
14612;BME280;7392;52.078;11.650;2022-09-14T05:23:54;99953.78;;;11.65;100.00
14612;BME280;7392;52.078;11.650;2022-09-14T05:26:23;99954.63;;;11.67;100.00
14612;BME280;7392;52.078;11.650;2022-09-14T05:28:52;99952.84;;;11.68;100.00
14612;BME280;7392;52.078;11.650;2022-09-14T05:31:22;99949.28;;;11.69;100.00
14612;BME280;7392;52.078;11.650;2022-09-14T05:33:51;99940.34;;;11.71;100.00
14612;BME280;7392;52.078;11.650;2022-09-14T05:36:19;99945.63;;;11.74;100.00
14612;BME280;7392;52.078;11.650;2022-09-14T05:38:47;99941.16;;;11.75;100.00
14612;BME280;7392;52.078;11.650;2022-09-14T05:41:15;99937.59;;;11.76;100.00
14612;BME280;7392;52.078;11.650;2022-09-14T05:43:43;99936.66;;;11.78;100.00
14612;BME280;7392;52.078;11.650;2022-09-14T05:46:12;99941.91;;;11.82;100.00
14612;BME280;7392;52.078;11.650;2022-09-14T05:48:42;99938.31;;;11.86;100.00
14612;BME280;7392;52.078;11.650;2022-09-14T05:51:11;99947.09;;;11.89;100.00
14612;BME280;7392;52.078;11.650;2022-09-14T05:53:40;99948.84;;;11.92;100.00
14612;BME280;7392;52.078;11.650;2022-09-14T05:56:10;99948.78;;;11.95;100.00
14612;BME280;7392;52.078;11.650;2022-09-14T05:58:39;99959.38;;;11.98;100.00
14612;BME280;7392;52.078;11.650;2022-09-14T06:01:08;99956.72;;;11.98;100.00
14612;BME280;7392;52.078;11.650;2022-09-14T06:03:36;99955.72;;;12.02;100.00
14612;BME280;7392;52.078;11.650;2022-09-14T06:06:07;99944.19;;;12.03;100.00
14612;BME280;7392;52.078;11.650;2022-09-14T06:08:35;99941.47;;;12.06;100.00
14612;BME280;7392;52.078;11.650;2022-09-14T06:11:04;99938.66;;;12.12;100.00
14612;BME280;7392;52.078;11.650;2022-09-14T06:13:33;99945.69;;;12.16;100.00
14612;BME280;7392;52.078;11.650;2022-09-14T06:16:01;99943.81;;;12.22;100.00
14612;BME280;7392;52.078;11.650;2022-09-14T06:18:33;99942.78;;;12.27;100.00
14612;BME280;7392;52.078;11.650;2022-09-14T06:21:01;99950.69;;;12.32;100.00
14612;BME280;7392;52.078;11.650;2022-09-14T06:23:31;99953.19;;;12.38;100.00
14612;BME280;7392;52.078;11.650;2022-09-14T06:26:00;99951.34;;;12.42;100.00
14612;BME280;7392;52.078;11.650;2022-09-14T06:28:29;99954.84;;;12.45;100.00
14612;BME280;7392;52.078;11.650;2022-09-14T06:30:57;99953.81;;;12.51;100.00
14612;BME280;7392;52.078;11.650;2022-09-14T06:33:24;99952.81;;;12.55;100.00
14612;BME280;7392;52.078;11.650;2022-09-14T06:35:54;99943.84;;;12.61;100.00
14612;BME280;7392;52.078;11.650;2022-09-14T06:38:22;99957.00;;;12.67;100.00
14612;BME280;7392;52.078;11.650;2022-09-14T06:40:52;99948.88;;;12.73;100.00
14612;BME280;7392;52.078;11.650;2022-09-14T06:43:22;99948.66;;;12.81;100.00
14612;BME280;7392;52.078;11.650;2022-09-14T06:45:57;99947.56;;;12.89;100.00
14612;BME280;7392;52.078;11.650;2022-09-14T06:48:26;99943.88;;;12.97;100.00
14612;BME280;7392;52.078;11.650;2022-09-14T06:50:54;99950.72;;;13.07;100.00
14612;BME280;7392;52.078;11.650;2022-09-14T06:53:22;99948.75;;;13.15;100.00
14612;BME280;7392;52.078;11.650;2022-09-14T06:55:52;99946.69;;;13.25;100.00
14612;BME280;7392;52.078;11.650;2022-09-14T06:58:19;99949.13;;;13.36;100.00
14612;BME280;7392;52.078;11.650;2022-09-14T07:00:47;99948.84;;;13.46;100.00
14612;BME280;7392;52.078;11.650;2022-09-14T07:03:15;99953.06;;;13.55;100.00
14612;BME280;7392;52.078;11.650;2022-09-14T07:05:43;99945.69;;;13.65;100.00
14612;BME280;7392;52.078;11.650;2022-09-14T07:08:11;99948.09;;;13.74;100.00
14612;BME280;7392;52.078;11.650;2022-09-14T07:10:39;99943.41;;;13.82;100.00
14612;BME280;7392;52.078;11.650;2022-09-14T07:13:12;99950.31;;;13.90;100.00
14612;BME280;7392;52.078;11.650;2022-09-14T07:15:47;99964.34;;;13.98;100.00
14612;BME280;7392;52.078;11.650;2022-09-14T07:18:15;99960.56;;;14.05;100.00
14612;BME280;7392;52.078;11.650;2022-09-14T07:20:43;99965.72;;;14.11;100.00
14612;BME280;7392;52.078;11.650;2022-09-14T07:23:10;99956.69;;;14.15;100.00
14612;BME280;7392;52.078;11.650;2022-09-14T07:25:39;99950.25;;;14.22;100.00
14612;BME280;7392;52.078;11.650;2022-09-14T07:28:07;99952.63;;;14.33;100.00
14612;BME280;7392;52.078;11.650;2022-09-14T07:30:37;99937.16;;;14.43;100.00
14612;BME280;7392;52.078;11.650;2022-09-14T07:33:06;99943.06;;;14.54;100.00
14612;BME280;7392;52.078;11.650;2022-09-14T07:35:34;99943.69;;;14.64;100.00
14612;BME280;7392;52.078;11.650;2022-09-14T07:38:02;99943.47;;;14.70;100.00
14612;BME280;7392;52.078;11.650;2022-09-14T07:40:29;99940.63;;;14.76;100.00
14612;BME280;7392;52.078;11.650;2022-09-14T07:42:57;99951.06;;;14.84;100.00
14612;BME280;7392;52.078;11.650;2022-09-14T07:45:27;99948.19;;;14.90;100.00
14612;BME280;7392;52.078;11.650;2022-09-14T07:47:56;99944.44;;;14.96;100.00
14612;BME280;7392;52.078;11.650;2022-09-14T07:50:24;99950.41;;;15.04;100.00
14612;BME280;7392;52.078;11.650;2022-09-14T07:52:52;99949.28;;;15.11;100.00
14612;BME280;7392;52.078;11.650;2022-09-14T07:55:20;99948.03;;;15.22;100.00
14612;BME280;7392;52.078;11.650;2022-09-14T07:57:47;99952.16;;;15.32;100.00
14612;BME280;7392;52.078;11.650;2022-09-14T08:00:22;99956.19;;;15.44;100.00
14612;BME280;7392;52.078;11.650;2022-09-14T08:02:51;99949.75;;;15.51;100.00
14612;BME280;7392;52.078;11.650;2022-09-14T08:05:22;99947.63;;;15.59;100.00
14612;BME280;7392;52.078;11.650;2022-09-14T08:07:52;99951.06;;;15.63;100.00
14612;BME280;7392;52.078;11.650;2022-09-14T08:10:20;99949.09;;;15.68;100.00
14612;BME280;7392;52.078;11.650;2022-09-14T08:12:49;99951.56;;;15.74;100.00
14612;BME280;7392;52.078;11.650;2022-09-14T08:15:18;99946.97;;;15.79;100.00
14612;BME280;7392;52.078;11.650;2022-09-14T08:17:50;99947.66;;;15.84;99.43
14612;BME280;7392;52.078;11.650;2022-09-14T08:20:18;99945.59;;;15.93;99.11
14612;BME280;7392;52.078;11.650;2022-09-14T08:22:47;99951.53;;;16.01;98.92
14612;BME280;7392;52.078;11.650;2022-09-14T08:25:15;99934.41;;;16.05;96.65
14612;BME280;7392;52.078;11.650;2022-09-14T08:27:42;99940.72;;;16.04;94.24
14612;BME280;7392;52.078;11.650;2022-09-14T08:30:11;99944.16;;;16.07;94.03
14612;BME280;7392;52.078;11.650;2022-09-14T08:32:38;99951.94;;;16.14;94.22
14612;BME280;7392;52.078;11.650;2022-09-14T08:35:07;99940.06;;;16.21;94.53
14612;BME280;7392;52.078;11.650;2022-09-14T08:37:35;99938.06;;;16.26;93.92
14612;BME280;7392;52.078;11.650;2022-09-14T08:40:05;99936.19;;;16.30;92.99
14612;BME280;7392;52.078;11.650;2022-09-14T08:42:32;99940.38;;;16.37;94.09
14612;BME280;7392;52.078;11.650;2022-09-14T08:45:04;99929.28;;;16.46;93.62
14612;BME280;7392;52.078;11.650;2022-09-14T08:47:35;99929.91;;;16.53;93.68
14612;BME280;7392;52.078;11.650;2022-09-14T08:50:11;99935.03;;;16.59;92.89
14612;BME280;7392;52.078;11.650;2022-09-14T08:52:42;99933.09;;;16.62;91.70
14612;BME280;7392;52.078;11.650;2022-09-14T08:55:21;99925.88;;;16.64;91.02
14612;BME280;7392;52.078;11.650;2022-09-14T08:57:55;99929.97;;;16.73;91.77
14612;BME280;7392;52.078;11.650;2022-09-14T09:00:32;99919.81;;;16.81;91.95
14612;BME280;7392;52.078;11.650;2022-09-14T09:03:32;99926.66;;;16.90;91.64
14612;BME280;7392;52.078;11.650;2022-09-14T09:06:09;99923.72;;;16.96;90.94
14612;BME280;7392;52.078;11.650;2022-09-14T09:08:48;99924.41;;;17.01;90.19
14612;BME280;7392;52.078;11.650;2022-09-14T09:11:24;99932.38;;;17.03;88.43
14612;BME280;7392;52.078;11.650;2022-09-14T09:13:55;99927.72;;;17.08;88.66
14612;BME280;7392;52.078;11.650;2022-09-14T09:16:26;99926.44;;;17.17;89.66
14612;BME280;7392;52.078;11.650;2022-09-14T09:18:58;99921.47;;;17.28;90.64
14612;BME280;7392;52.078;11.650;2022-09-14T09:21:32;99915.72;;;17.37;90.47
14612;BME280;7392;52.078;11.650;2022-09-14T09:24:10;99913.72;;;17.43;89.33
14612;BME280;7392;52.078;11.650;2022-09-14T09:26:43;99903.91;;;17.42;86.88
14612;BME280;7392;52.078;11.650;2022-09-14T09:29:11;99899.34;;;17.44;85.61
14612;BME280;7392;52.078;11.650;2022-09-14T09:31:58;99906.41;;;17.46;86.17
14612;BME280;7392;52.078;11.650;2022-09-14T09:34:50;99905.19;;;17.53;86.07
14612;BME280;7392;52.078;11.650;2022-09-14T09:37:37;99901.41;;;17.57;85.21
14612;BME280;7392;52.078;11.650;2022-09-14T09:40:13;99901.22;;;17.62;84.87
14612;BME280;7392;52.078;11.650;2022-09-14T09:43:06;99909.81;;;17.70;84.59
14612;BME280;7392;52.078;11.650;2022-09-14T09:45:52;99907.84;;;17.74;83.41
14612;BME280;7392;52.078;11.650;2022-09-14T09:48:23;99916.84;;;17.73;81.19
14612;BME280;7392;52.078;11.650;2022-09-14T09:51:04;99901.69;;;17.72;80.48
14612;BME280;7392;52.078;11.650;2022-09-14T09:53:36;99898.28;;;17.68;79.11
14612;BME280;7392;52.078;11.650;2022-09-14T09:56:05;99902.59;;;17.71;80.49
14612;BME280;7392;52.078;11.650;2022-09-14T09:58:35;99904.09;;;17.78;81.28
14612;BME280;7392;52.078;11.650;2022-09-14T10:01:06;99893.19;;;17.81;80.60
14612;BME280;7392;52.078;11.650;2022-09-14T10:03:39;99886.84;;;17.84;79.02
14612;BME280;7392;52.078;11.650;2022-09-14T10:06:09;99891.00;;;17.91;79.83
14612;BME280;7392;52.078;11.650;2022-09-14T10:08:42;99897.56;;;18.04;80.83
14612;BME280;7392;52.078;11.650;2022-09-14T10:11:28;99875.56;;;18.15;80.57
14612;BME280;7392;52.078;11.650;2022-09-14T10:13:58;99870.47;;;18.28;80.91
14612;BME280;7392;52.078;11.650;2022-09-14T10:16:32;99877.09;;;18.40;80.93
14612;BME280;7392;52.078;11.650;2022-09-14T10:19:01;99877.28;;;18.54;81.15
14612;BME280;7392;52.078;11.650;2022-09-14T10:21:29;99872.69;;;18.56;78.81
14612;BME280;7392;52.078;11.650;2022-09-14T10:24:03;99881.47;;;18.60;78.19
14612;BME280;7392;52.078;11.650;2022-09-14T10:26:35;99884.00;;;18.63;77.17
14612;BME280;7392;52.078;11.650;2022-09-14T10:29:31;99882.03;;;18.66;76.40
14612;BME280;7392;52.078;11.650;2022-09-14T10:32:05;99877.31;;;18.72;76.63
14612;BME280;7392;52.078;11.650;2022-09-14T10:34:38;99874.25;;;18.79;77.19
14612;BME280;7392;52.078;11.650;2022-09-14T10:37:15;99876.66;;;18.85;77.04
14612;BME280;7392;52.078;11.650;2022-09-14T10:40:04;99875.31;;;18.94;77.11
14612;BME280;7392;52.078;11.650;2022-09-14T10:42:39;99872.97;;;19.05;77.20
14612;BME280;7392;52.078;11.650;2022-09-14T10:45:17;99867.72;;;19.02;74.12
14612;BME280;7392;52.078;11.650;2022-09-14T10:47:59;99866.31;;;18.95;72.93
14612;BME280;7392;52.078;11.650;2022-09-14T10:50:37;99862.13;;;18.90;71.92
14612;BME280;7392;52.078;11.650;2022-09-14T10:53:16;99863.63;;;18.95;73.70
14612;BME280;7392;52.078;11.650;2022-09-14T10:55:51;99864.19;;;19.02;73.57
14612;BME280;7392;52.078;11.650;2022-09-14T10:58:37;99864.03;;;19.05;72.42
14612;BME280;7392;52.078;11.650;2022-09-14T11:01:18;99860.69;;;19.00;70.97
14612;BME280;7392;52.078;11.650;2022-09-14T11:03:57;99871.75;;;18.94;69.85
14612;BME280;7392;52.078;11.650;2022-09-14T11:06:38;99870.97;;;18.92;70.18
14612;BME280;7392;52.078;11.650;2022-09-14T11:09:16;99869.16;;;18.92;70.52
14612;BME280;7392;52.078;11.650;2022-09-14T11:11:53;99871.75;;;18.94;70.54
14612;BME280;7392;52.078;11.650;2022-09-14T11:14:36;99870.13;;;18.91;70.38
14612;BME280;7392;52.078;11.650;2022-09-14T11:17:40;99871.13;;;18.88;70.57
14612;BME280;7392;52.078;11.650;2022-09-14T11:20:22;99859.50;;;18.88;71.07
14612;BME280;7392;52.078;11.650;2022-09-14T11:23:00;99860.28;;;18.90;71.21
14612;BME280;7392;52.078;11.650;2022-09-14T11:25:38;99850.72;;;18.84;69.94
14612;BME280;7392;52.078;11.650;2022-09-14T11:28:10;99866.19;;;18.79;69.15
14612;BME280;7392;52.078;11.650;2022-09-14T11:30:43;99867.78;;;18.83;70.11
14612;BME280;7392;52.078;11.650;2022-09-14T11:33:19;99869.53;;;18.84;69.36
14612;BME280;7392;52.078;11.650;2022-09-14T11:35:49;99858.13;;;18.79;69.10
14612;BME280;7392;52.078;11.650;2022-09-14T11:38:20;99858.25;;;18.76;69.06
14612;BME280;7392;52.078;11.650;2022-09-14T11:40:51;99859.28;;;18.74;68.52
14612;BME280;7392;52.078;11.650;2022-09-14T11:43:23;99863.06;;;18.69;68.52
14612;BME280;7392;52.078;11.650;2022-09-14T11:46:00;99865.69;;;18.71;69.16
14612;BME280;7392;52.078;11.650;2022-09-14T11:48:36;99864.84;;;18.71;69.30
14612;BME280;7392;52.078;11.650;2022-09-14T11:51:12;99862.94;;;18.73;69.48
14612;BME280;7392;52.078;11.650;2022-09-14T11:53:42;99852.09;;;18.74;69.46
14612;BME280;7392;52.078;11.650;2022-09-14T11:56:20;99850.41;;;18.72;68.46
14612;BME280;7392;52.078;11.650;2022-09-14T11:58:53;99847.66;;;18.73;68.00
14612;BME280;7392;52.078;11.650;2022-09-14T12:01:39;99857.06;;;18.82;67.48
14612;BME280;7392;52.078;11.650;2022-09-14T12:04:11;99842.72;;;18.83;67.23
14612;BME280;7392;52.078;11.650;2022-09-14T12:06:52;99836.16;;;18.88;67.62
14612;BME280;7392;52.078;11.650;2022-09-14T12:09:51;99836.06;;;18.90;66.87
14612;BME280;7392;52.078;11.650;2022-09-14T12:12:34;99834.03;;;18.95;67.17
14612;BME280;7392;52.078;11.650;2022-09-14T12:15:13;99841.38;;;18.92;66.44
14612;BME280;7392;52.078;11.650;2022-09-14T12:17:41;99837.28;;;18.84;66.59
14612;BME280;7392;52.078;11.650;2022-09-14T12:20:35;99837.28;;;18.84;67.80
14612;BME280;7392;52.078;11.650;2022-09-14T12:23:24;99837.13;;;18.87;68.28
14612;BME280;7392;52.078;11.650;2022-09-14T12:25:56;99829.91;;;18.88;68.18
14612;BME280;7392;52.078;11.650;2022-09-14T12:28:43;99815.94;;;18.80;67.24
14612;BME280;7392;52.078;11.650;2022-09-14T12:32:00;99812.41;;;18.79;67.17
14612;BME280;7392;52.078;11.650;2022-09-14T12:34:29;99818.78;;;18.77;67.08
14612;BME280;7392;52.078;11.650;2022-09-14T12:37:03;99810.88;;;18.74;67.30
14612;BME280;7392;52.078;11.650;2022-09-14T12:39:37;99804.47;;;18.76;68.13
14612;BME280;7392;52.078;11.650;2022-09-14T12:42:25;99805.19;;;18.80;69.19
14612;BME280;7392;52.078;11.650;2022-09-14T12:44:54;99805.00;;;18.84;69.96
14612;BME280;7392;52.078;11.650;2022-09-14T12:47:52;99814.72;;;18.87;69.80
14612;BME280;7392;52.078;11.650;2022-09-14T12:50:20;99813.69;;;18.90;70.02
14612;BME280;7392;52.078;11.650;2022-09-14T12:53:10;99817.47;;;18.85;69.42
14612;BME280;7392;52.078;11.650;2022-09-14T12:55:46;99818.72;;;18.78;69.00
14612;BME280;7392;52.078;11.650;2022-09-14T12:58:35;99822.25;;;18.79;69.52
14612;BME280;7392;52.078;11.650;2022-09-14T13:01:18;99811.50;;;18.79;70.31
14612;BME280;7392;52.078;11.650;2022-09-14T13:03:51;99811.50;;;18.79;70.43
14612;BME280;7392;52.078;11.650;2022-09-14T13:06:21;99802.50;;;18.80;70.40
14612;BME280;7392;52.078;11.650;2022-09-14T13:08:53;99799.81;;;18.80;70.24
14612;BME280;7392;52.078;11.650;2022-09-14T13:11:27;99789.91;;;18.80;70.69
14612;BME280;7392;52.078;11.650;2022-09-14T13:13:58;99789.91;;;18.80;69.93
14612;BME280;7392;52.078;11.650;2022-09-14T13:16:35;99792.59;;;18.80;69.87
14612;BME280;7392;52.078;11.650;2022-09-14T13:19:15;99790.75;;;18.82;70.46